createdAt,value
2023-02-15T00:03:53.647Z,2.13
2023-02-15T00:10:35.900Z,2.09
2023-02-15T00:17:18.240Z,2.07
2023-02-15T00:24:05.016Z,2.12
2023-02-15T00:30:47.389Z,2.14
2023-02-15T00:37:29.843Z,2.21
2023-02-15T00:44:12.532Z,2.27
2023-02-15T00:50:58.517Z,2.34
2023-02-15T00:57:40.958Z,2.36
2023-02-15T01:04:23.260Z,2.37
2023-02-15T01:11:09.493Z,2.38
2023-02-15T01:17:53.837Z,2.37
2023-02-15T01:24:37.552Z,2.37
2023-02-15T01:31:22.689Z,2.36
2023-02-15T01:38:05.058Z,2.36
2023-02-15T01:45:04.196Z,2.37
2023-02-15T01:51:49.843Z,2.36
2023-02-15T01:58:35.146Z,2.34
2023-02-15T02:05:19.343Z,2.32
2023-02-15T02:12:02.407Z,2.30
2023-02-15T02:19:34.181Z,2.27
2023-02-15T02:34:32.292Z,2.25
2023-02-15T02:42:00.765Z,2.26
2023-02-15T02:48:43.355Z,2.26
2023-02-15T02:56:02.895Z,2.27
2023-02-15T03:02:48.429Z,2.27
2023-02-15T03:09:43.506Z,2.28
2023-02-15T03:16:29.455Z,2.27
2023-02-15T03:23:18.859Z,2.27
2023-02-15T03:30:03.368Z,2.28
2023-02-15T03:37:20.585Z,2.28
2023-02-15T03:44:14.824Z,2.27
2023-02-15T03:51:23.589Z,2.25
2023-02-15T03:58:24.991Z,2.25
2023-02-15T04:05:07.488Z,2.27
2023-02-15T04:11:50.080Z,2.27
2023-02-15T04:18:55.800Z,2.24
2023-02-15T04:25:38.263Z,2.21
2023-02-15T04:32:20.792Z,2.19
2023-02-15T04:39:19.817Z,2.15
2023-02-15T04:46:02.595Z,2.15
2023-02-15T04:52:45.073Z,2.14
2023-02-15T04:59:27.476Z,2.12
2023-02-15T05:06:09.921Z,2.14
2023-02-15T05:12:52.359Z,2.16
2023-02-15T05:19:34.556Z,2.15
2023-02-15T05:26:43.554Z,2.16
2023-02-15T05:33:25.977Z,2.17
2023-02-15T05:40:09.351Z,2.15
2023-02-15T05:46:51.838Z,2.18
2023-02-15T05:53:37.982Z,2.18
2023-02-15T06:00:20.831Z,2.17
2023-02-15T06:07:03.315Z,2.17
2023-02-15T06:13:45.931Z,2.16
2023-02-15T06:20:28.489Z,2.17
2023-02-15T06:27:11.864Z,2.17
2023-02-15T06:34:01.797Z,2.17
2023-02-15T06:40:44.212Z,2.17
2023-02-15T06:47:27.534Z,2.17
2023-02-15T07:01:56.571Z,2.19
2023-02-15T07:08:40.384Z,2.18
2023-02-15T07:15:23.203Z,2.20
2023-02-15T07:22:06.065Z,2.21
2023-02-15T07:28:48.706Z,2.26
2023-02-15T07:35:31.014Z,2.30
2023-02-15T07:42:13.622Z,2.34
2023-02-15T07:48:57.431Z,2.41
2023-02-15T07:55:39.900Z,2.49
2023-02-15T08:02:22.792Z,2.56
2023-02-15T08:09:11.566Z,2.64
2023-02-15T08:15:53.844Z,2.73
2023-02-15T08:22:36.038Z,2.80
2023-02-15T08:29:29.025Z,2.87
2023-02-15T08:36:17.819Z,2.94
2023-02-15T08:43:00.278Z,3.02
2023-02-15T08:49:45.247Z,3.08
2023-02-15T08:56:35.857Z,3.09
2023-02-15T09:03:18.755Z,3.11
2023-02-15T09:10:04.219Z,3.15
2023-02-15T09:16:50.050Z,3.11
2023-02-15T09:23:32.548Z,3.09
2023-02-15T09:30:15.298Z,3.11
2023-02-15T09:36:57.947Z,3.17
2023-02-15T10:30:02.147Z,3.85
2023-02-15T10:37:18.075Z,3.90
2023-02-15T10:44:43.621Z,3.96
2023-02-15T10:51:59.179Z,4.00
2023-02-15T10:58:59.969Z,4.05
2023-02-15T11:06:13.361Z,4.10
2023-02-15T11:12:58.948Z,4.12
2023-02-15T11:20:22.917Z,4.12
2023-02-15T11:27:16.078Z,4.08
2023-02-15T11:34:14.535Z,4.07
2023-02-15T11:41:15.954Z,4.02
2023-02-15T11:48:02.738Z,3.95
2023-02-15T11:54:51.115Z,3.96
2023-02-15T12:01:38.910Z,3.98
2023-02-15T12:08:22.878Z,4.02
2023-02-15T12:15:09.844Z,4.01
2023-02-15T12:21:54.108Z,4.03
2023-02-15T12:28:45.819Z,4.07
2023-02-15T12:35:36.040Z,4.12
2023-02-15T12:42:20.615Z,4.19
2023-02-15T12:49:21.186Z,4.19
2023-02-15T12:56:08.205Z,4.18
2023-02-15T13:02:55.992Z,4.13
2023-02-15T13:09:40.886Z,4.11
2023-02-15T13:16:40.777Z,4.08
2023-02-15T13:23:30.559Z,4.06
2023-02-15T13:30:43.174Z,4.02
2023-02-15T13:38:09.758Z,4.01
2023-02-15T13:45:31.555Z,4.01
2023-02-15T13:52:26.082Z,3.98
2023-02-15T13:59:41.524Z,3.95
2023-02-15T14:07:06.461Z,3.88
2023-02-15T14:14:23.410Z,3.84
2023-02-15T14:21:26.653Z,3.79
2023-02-15T14:28:18.467Z,3.76
2023-02-15T14:35:04.486Z,3.73
2023-02-15T14:41:57.939Z,3.67
2023-02-15T14:48:49.372Z,3.62
2023-02-15T14:55:38.328Z,3.55
2023-02-15T15:02:43.571Z,3.48
2023-02-15T15:09:31.889Z,3.43
2023-02-15T15:16:37.142Z,3.38
2023-02-15T15:23:19.372Z,3.33
2023-02-15T15:30:02.498Z,3.30
2023-02-15T15:37:22.857Z,3.23
2023-02-15T15:44:27.137Z,3.19
2023-02-15T15:51:20.692Z,3.15
2023-02-15T15:58:07.194Z,3.09
2023-02-15T16:04:49.480Z,3.03
2023-02-15T16:11:32.508Z,2.99
2023-02-15T16:18:18.419Z,2.94
2023-02-15T16:25:43.731Z,2.88
2023-02-15T16:32:28.212Z,2.83
2023-02-15T16:39:19.947Z,2.81
2023-02-15T16:46:21.644Z,2.77
2023-02-15T16:53:07.493Z,2.75
2023-02-15T16:59:53.376Z,2.72
2023-02-15T17:06:36.769Z,2.69
2023-02-15T17:13:19.202Z,2.67
2023-02-15T17:20:01.454Z,2.61
2023-02-15T17:26:43.732Z,2.56
2023-02-15T17:33:36.469Z,2.52
2023-02-15T17:40:33.872Z,2.49
2023-02-15T17:47:23.337Z,2.45
2023-02-15T17:54:24.553Z,2.40
2023-02-15T18:01:38.587Z,2.38
2023-02-15T18:08:46.165Z,2.36
2023-02-15T18:15:28.606Z,2.31
2023-02-15T18:22:19.422Z,2.30
2023-02-15T18:29:01.618Z,2.27
2023-02-15T18:35:44.716Z,2.23
2023-02-15T18:42:31.457Z,2.19
2023-02-15T18:49:13.751Z,2.16
2023-02-15T18:55:56.087Z,2.15
2023-02-15T19:02:39.138Z,2.14
2023-02-15T19:09:24.616Z,2.15
2023-02-15T19:16:08.850Z,2.15
2023-02-15T19:22:53.388Z,2.11
2023-02-15T19:29:36.589Z,2.04
2023-02-15T19:36:21.531Z,2.00
2023-02-15T19:43:10.412Z,1.97
2023-02-15T19:49:52.685Z,1.97
2023-02-15T19:56:34.970Z,1.98
2023-02-15T20:03:17.684Z,2.01
2023-02-15T20:09:59.916Z,2.03
2023-02-15T20:16:42.468Z,2.06
2023-02-15T20:23:31.310Z,2.09
2023-02-15T20:30:26.928Z,2.12
2023-02-15T20:37:23.877Z,2.14
2023-02-15T20:44:26.120Z,2.14
2023-02-15T20:51:20.382Z,2.15
2023-02-15T20:58:03.534Z,2.16
2023-02-15T21:04:46.078Z,2.18
2023-02-15T21:11:28.353Z,2.18
2023-02-15T21:18:31.509Z,2.20
2023-02-15T21:25:33.035Z,2.21
2023-02-15T21:32:15.508Z,2.23
2023-02-15T21:38:57.839Z,2.25
2023-02-15T21:45:58.945Z,2.25
2023-02-15T21:52:41.144Z,2.25
2023-02-15T21:59:23.419Z,2.26
2023-02-15T22:06:06.221Z,2.26
2023-02-15T22:12:56.396Z,2.28
2023-02-15T22:19:38.820Z,2.26
2023-02-15T22:26:25.011Z,2.26
2023-02-15T22:33:20.485Z,2.27
2023-02-15T22:40:02.774Z,2.26
2023-02-15T22:46:45.081Z,2.28
2023-02-15T22:53:27.398Z,2.28
2023-02-15T23:00:18.080Z,2.28
2023-02-15T23:07:01.047Z,2.29
2023-02-15T23:13:43.592Z,2.29
2023-02-15T23:20:26.165Z,2.27
2023-02-15T23:27:36.035Z,2.26
2023-02-15T23:34:29.628Z,2.23
2023-02-15T23:41:21.730Z,2.23
2023-02-15T23:48:22.976Z,2.22
2023-02-15T23:55:05.690Z,2.23
